Time;durP1;ratioP1;P1;durP2;ratioP2;P2;SDS_P1;SDS_P2;PMS_P1;PMS_P2;Temp;Humidity;BMP_temperature;BMP_pressure;BME280_temperature;BME280_humidity;BME280_pressure;Samples;Min_cycle;Max_cycle;Signal;HPM_P1;HPM_P2
2022/06/24 00:04:28;;;;;;;3.25;0.85;;;;;;;;;;10475398;28;20674;-83
2022/06/24 00:09:31;;;;;;;1.58;0.70;;;;;;;;;;10479350;28;20041;-83
2022/06/24 00:14:36;;;;;;;2.23;0.80;;;;;;;;;;10450067;28;20041;-84
2022/06/24 00:19:53;;;;;;;0.90;0.68;;;;;;;;;;10450810;28;20045;-82
2022/06/24 00:25:09;;;;;;;2.10;0.80;;;;;;;;;;10479948;28;20155;-83
2022/06/24 00:30:14;;;;;;;0.60;0.50;;;;;;;;;;10454325;28;20037;-81
2022/06/24 00:35:19;;;;;;;3.60;0.75;;;;;;;;;;10479155;28;20036;-82
2022/06/24 00:40:24;;;;;;;2.47;0.77;;;;;;;;;;10457324;28;20497;-82
2022/06/24 00:45:32;;;;;;;2.15;0.65;;;;;;;;;;10448699;28;20102;-82
2022/06/24 00:50:37;;;;;;;0.98;0.60;;;;;;;;;;10454193;28;20369;-82
2022/06/24 00:55:46;;;;;;;2.17;0.88;;;;;;;;;;10455965;28;20055;-82
2022/06/24 01:00:50;;;;;;;0.30;0.30;;;;;;;;;;10456827;28;20066;-82
2022/06/24 01:05:53;;;;;;;3.22;0.80;;;;;;;;;;10476313;28;20553;-86
2022/06/24 01:10:57;;;;;;;0.40;0.30;;;;;;;;;;10456699;28;20040;-86
2022/06/24 01:16:02;;;;;;;2.08;0.70;;;;;;;;;;10453984;28;20094;-82
2022/06/24 01:21:06;;;;;;;3.20;0.60;;;;;;;;;;10459631;28;20359;-84
2022/06/24 01:26:16;;;;;;;4.07;0.73;;;;;;;;;;10453248;28;20036;-82
2022/06/24 01:31:19;;;;;;;3.70;0.75;;;;;;;;;;10455997;28;20051;-81
2022/06/24 01:36:40;;;;;;;2.42;1.23;;;;;;;;;;10458882;28;20064;-81
2022/06/24 01:41:44;;;;;;;1.52;0.88;;;;;;;;;;10457793;28;20042;-80
2022/06/24 01:46:47;;;;;;;1.88;0.90;;;;;;;;;;10452338;28;20037;-80
2022/06/24 01:51:50;;;;;;;;;;;;;;;;;;10475505;28;20029;-81
2022/06/24 01:56:55;;;;;;;1.38;0.60;;;;;;;;;;10466671;28;19920;-82
2022/06/24 02:01:58;;;;;;;1.45;0.85;;;;;;;;;;10454810;28;20075;-82
2022/06/24 02:07:01;;;;;;;1.13;0.60;;;;;;;;;;10456533;28;20444;-82
2022/06/24 02:17:29;;;;;;;1.80;0.88;;;;;;;;;;10433058;28;20419;-82
2022/06/24 02:22:31;;;;;;;3.07;0.80;;;;;;;;;;10467456;28;20038;-83
2022/06/24 02:27:37;;;;;;;1.45;0.70;;;;;;;;;;10452206;28;20531;-81
2022/06/24 02:32:40;;;;;;;1.35;0.60;;;;;;;;;;10456940;28;20099;-79
2022/06/24 02:37:45;;;;;;;4.90;0.90;;;;;;;;;;10476660;28;20251;-83
2022/06/24 02:42:55;;;;;;;1.75;0.90;;;;;;;;;;10451423;28;20105;-80
2022/06/24 02:47:58;;;;;;;2.15;0.88;;;;;;;;;;10457715;28;20677;-81
2022/06/24 02:53:01;;;;;;;1.60;0.87;;;;;;;;;;10457766;28;20079;-80
2022/06/24 02:58:05;;;;;;;3.07;0.93;;;;;;;;;;10472825;28;20448;-81
2022/06/24 03:03:08;;;;;;;2.00;0.80;;;;;;;;;;10457990;28;20053;-81
2022/06/24 03:08:11;;;;;;;2.38;1.70;;;;;;;;;;10478979;28;20028;-83
2022/06/24 03:13:16;;;;;;;2.65;1.13;;;;;;;;;;10483062;28;20636;-82
2022/06/24 03:18:20;;;;;;;2.95;1.05;;;;;;;;;;10465919;28;20037;-82
2022/06/24 03:23:23;;;;;;;2.03;1.02;;;;;;;;;;10478051;28;20024;-84
2022/06/24 03:28:28;;;;;;;5.25;1.08;;;;;;;;;;10461654;28;20048;-84
2022/06/24 03:33:31;;;;;;;4.38;1.05;;;;;;;;;;10464710;28;21307;-84
2022/06/24 03:38:34;;;;;;;6.10;1.13;;;;;;;;;;10476040;28;20040;-83
2022/06/24 03:43:38;;;;;;;3.25;0.90;;;;;;;;;;10465469;28;20474;-83
2022/06/24 03:48:42;;;;;;;6.55;1.48;;;;;;;;;;10477132;28;20078;-83
2022/06/24 03:53:45;;;;;;;;;;;;;;;;;;10464753;28;20089;-83
2022/06/24 03:58:50;;;;;;;2.78;0.98;;;;;;;;;;10458542;28;19935;-81
2022/06/24 04:03:53;;;;;;;3.28;1.00;;;;;;;;;;10478043;28;20036;-82
2022/06/24 04:08:56;;;;;;;3.95;0.90;;;;;;;;;;10459368;28;20033;-80
2022/06/24 04:14:01;;;;;;;3.83;1.05;;;;;;;;;;10460282;28;20079;-85
2022/06/24 04:19:04;;;;;;;2.45;1.15;;;;;;;;;;10484337;28;20047;-84
2022/06/24 04:24:07;;;;;;;5.05;1.13;;;;;;;;;;10476323;28;20098;-84
2022/06/24 04:29:11;;;;;;;3.55;1.00;;;;;;;;;;10466389;28;20144;-84
2022/06/24 04:34:14;;;;;;;3.70;1.30;;;;;;;;;;10483942;28;20063;-84
2022/06/24 04:39:17;;;;;;;3.55;1.00;;;;;;;;;;10458273;28;20052;-85
2022/06/24 04:44:22;;;;;;;1.77;1.10;;;;;;;;;;10457517;28;20032;-84
2022/06/24 04:49:26;;;;;;;1.88;1.10;;;;;;;;;;10460592;28;20049;-84
2022/06/24 04:54:30;;;;;;;5.97;0.98;;;;;;;;;;10459686;28;20028;-84
2022/06/24 04:59:34;;;;;;;3.75;0.93;;;;;;;;;;10461957;28;20037;-84
2022/06/24 05:04:37;;;;;;;2.90;1.15;;;;;;;;;;10460571;28;20349;-82
2022/06/24 05:09:40;;;;;;;3.78;1.23;;;;;;;;;;10459777;28;20139;-81
2022/06/24 05:14:45;;;;;;;3.53;1.42;;;;;;;;;;10459929;28;20555;-81
2022/06/24 05:19:54;;;;;;;4.18;1.55;;;;;;;;;;10478450;28;20040;-81
2022/06/24 05:24:56;;;;;;;2.17;1.20;;;;;;;;;;10478908;28;20357;-80
2022/06/24 05:30:01;;;;;;;2.97;1.27;;;;;;;;;;10479794;28;20040;-82
2022/06/24 05:35:06;;;;;;;5.30;1.38;;;;;;;;;;10482122;28;20028;-84
2022/06/24 05:40:11;;;;;;;10.45;1.10;;;;;;;;;;10465352;28;20098;-85
2022/06/24 05:45:16;;;;;;;4.68;1.55;;;;;;;;;;10461970;28;20773;-75
2022/06/24 05:50:19;;;;;;;5.20;1.88;;;;;;;;;;10439314;28;20040;-76
2022/06/24 05:55:22;;;;;;;;;;;;;;;;;;10467277;28;20036;-76
2022/06/24 06:00:27;;;;;;;4.95;1.10;;;;;;;;;;10467437;28;20016;-75
2022/06/24 06:05:31;;;;;;;3.50;1.25;;;;;;;;;;10465795;28;20111;-76
2022/06/24 06:10:35;;;;;;;3.03;1.05;;;;;;;;;;10465805;28;20060;-76
2022/06/24 06:15:40;;;;;;;2.65;1.02;;;;;;;;;;10447752;28;20065;-75
2022/06/24 06:20:43;;;;;;;2.85;0.90;;;;;;;;;;10442937;28;20565;-76
2022/06/24 06:25:47;;;;;;;5.35;1.00;;;;;;;;;;10461294;28;20470;-76
2022/06/24 06:30:51;;;;;;;6.28;0.95;;;;;;;;;;10438493;28;20389;-77
2022/06/24 06:36:01;;;;;;;4.53;0.95;;;;;;;;;;10462414;28;20068;-75
2022/06/24 06:41:04;;;;;;;4.38;0.90;;;;;;;;;;10469406;28;20036;-75
2022/06/24 06:46:10;;;;;;;6.38;0.82;;;;;;;;;;10453732;28;20123;-76
2022/06/24 06:51:13;;;;;;;3.83;1.30;;;;;;;;;;10472206;28;20086;-76
2022/06/24 06:56:19;;;;;;;2.88;0.80;;;;;;;;;;10477582;28;20091;-76
2022/06/24 07:01:23;;;;;;;2.28;1.00;;;;;;;;;;10470514;28;20043;-76
2022/06/24 07:06:26;;;;;;;2.72;0.75;;;;;;;;;;10453616;28;20036;-76
2022/06/24 07:11:29;;;;;;;2.47;1.10;;;;;;;;;;10448072;28;20537;-76
2022/06/24 07:16:33;;;;;;;3.17;1.00;;;;;;;;;;10453187;28;20028;-75
2022/06/24 07:21:36;;;;;;;4.15;1.15;;;;;;;;;;10451657;28;20096;-75
2022/06/24 07:26:39;;;;;;;2.13;0.93;;;;;;;;;;10450333;28;20052;-77
2022/06/24 07:31:48;;;;;;;3.63;1.10;;;;;;;;;;10469772;28;20040;-76
2022/06/24 07:36:59;;;;;;;3.25;1.50;;;;;;;;;;10459228;28;20028;-78
2022/06/24 07:42:02;;;;;;;1.63;1.02;;;;;;;;;;10469816;28;20043;-76
2022/06/24 07:47:07;;;;;;;7.18;1.23;;;;;;;;;;10451688;28;20106;-75
2022/06/24 07:52:11;;;;;;;9.88;1.40;;;;;;;;;;10451301;28;20468;-77
2022/06/24 07:57:13;;;;;;;6.05;0.90;;;;;;;;;;10463468;28;20337;-76
2022/06/24 08:02:18;;;;;;;8.25;1.80;;;;;;;;;;10468354;28;20045;-77
2022/06/24 08:07:20;;;;;;;5.05;1.23;;;;;;;;;;10469131;28;20037;-76
2022/06/24 08:12:25;;;;;;;5.65;2.10;;;;;;;;;;10466659;28;20045;-76
2022/06/24 08:17:29;;;;;;;4.20;1.60;;;;;;;;;;10453959;28;20037;-76
2022/06/24 08:22:32;;;;;;;5.50;1.98;;;;;;;;;;10466822;28;20155;-76
2022/06/24 08:27:36;;;;;;;5.72;1.58;;;;;;;;;;10454107;28;20041;-76
2022/06/24 08:32:40;;;;;;;3.22;1.50;;;;;;;;;;10448982;28;20073;-76
2022/06/24 08:37:44;;;;;;;6.00;1.52;;;;;;;;;;10446926;28;20041;-75
2022/06/24 08:42:52;;;;;;;7.18;1.75;;;;;;;;;;10449374;28;20121;-76
2022/06/24 08:47:56;;;;;;;4.50;1.50;;;;;;;;;;10468547;28;20036;-75
2022/06/24 08:53:04;;;;;;;5.65;1.70;;;;;;;;;;10447738;28;20136;-75
2022/06/24 08:58:09;;;;;;;5.72;2.25;;;;;;;;;;10447550;28;20393;-75
2022/06/24 09:03:15;;;;;;;7.18;1.75;;;;;;;;;;10467200;28;20037;-75
2022/06/24 09:08:18;;;;;;;6.20;2.00;;;;;;;;;;10469389;28;20078;-75
2022/06/24 09:13:21;;;;;;;6.32;1.73;;;;;;;;;;10447769;28;20466;-76
2022/06/24 09:18:25;;;;;;;8.52;1.95;;;;;;;;;;10471825;28;20036;-75
2022/06/24 09:23:28;;;;;;;5.60;1.55;;;;;;;;;;10448790;28;20036;-76
2022/06/24 09:28:33;;;;;;;5.50;1.77;;;;;;;;;;10465437;28;20037;-75
2022/06/24 09:33:38;;;;;;;6.20;2.10;;;;;;;;;;10448005;28;20479;-76
2022/06/24 09:38:54;;;;;;;8.77;1.90;;;;;;;;;;10444928;28;20130;-75
2022/06/24 09:43:58;;;;;;;5.85;1.98;;;;;;;;;;10448816;28;20100;-76
2022/06/24 09:49:03;;;;;;;5.93;1.98;;;;;;;;;;10440519;28;20029;-76
2022/06/24 09:54:06;;;;;;;10.25;2.60;;;;;;;;;;10446808;28;20068;-75
2022/06/24 10:04:32;;;;;;;5.18;2.30;;;;;;;;;;10448845;28;20493;-75
2022/06/24 10:09:36;;;;;;;7.70;2.10;;;;;;;;;;10446116;28;20052;-75
2022/06/24 10:14:39;;;;;;;5.85;2.25;;;;;;;;;;10475327;28;20170;-83
2022/06/24 10:19:45;;;;;;;5.75;2.20;;;;;;;;;;10490443;28;20135;-81
2022/06/24 10:24:49;;;;;;;7.82;2.42;;;;;;;;;;10461206;28;20242;-83
2022/06/24 10:29:51;;;;;;;6.30;1.77;;;;;;;;;;10467711;28;20136;-83
2022/06/24 10:35:10;;;;;;;4.55;1.92;;;;;;;;;;10494900;28;20075;-82
2022/06/24 10:40:24;;;;;;;3.97;1.90;;;;;;;;;;10489615;28;20071;-84
2022/06/24 10:45:34;;;;;;;6.65;2.03;;;;;;;;;;10495573;28;20040;-83
2022/06/24 10:50:38;;;;;;;15.70;4.85;;;;;;;;;;10461616;28;20062;-83
2022/06/24 10:55:41;;;;;;;5.63;1.80;;;;;;;;;;10474587;28;20029;-82
2022/06/24 11:00:51;;;;;;;10.25;2.63;;;;;;;;;;10490070;28;20037;-83
2022/06/24 11:05:55;;;;;;;2.63;1.48;;;;;;;;;;10479774;28;20036;-76
2022/06/24 11:10:58;;;;;;;7.70;1.77;;;;;;;;;;10445044;28;20064;-76
2022/06/24 11:16:01;;;;;;;8.20;3.25;;;;;;;;;;10445989;28;20032;-76
2022/06/24 11:21:08;;;;;;;5.45;1.75;;;;;;;;;;10458925;28;20060;-75
2022/06/24 11:26:13;;;;;;;7.53;2.53;;;;;;;;;;10441950;28;20044;-76
2022/06/24 11:31:17;;;;;;;10.07;2.35;;;;;;;;;;10469972;28;20058;-76
2022/06/24 11:36:23;;;;;;;10.30;2.88;;;;;;;;;;10495343;28;20548;-84
2022/06/24 11:41:28;;;;;;;6.57;2.25;;;;;;;;;;10483636;28;20407;-85
2022/06/24 11:46:51;;;;;;;5.03;2.30;;;;;;;;;;10478180;28;20036;-82
2022/06/24 11:51:55;;;;;;;6.80;2.22;;;;;;;;;;10479117;28;20545;-83
2022/06/24 11:56:58;;;;;;;6.30;2.10;;;;;;;;;;10491673;28;20036;-85
2022/06/24 12:02:01;;;;;;;7.22;2.25;;;;;;;;;;10454757;28;20441;-84
2022/06/24 12:07:06;;;;;;;6.70;2.35;;;;;;;;;;10481529;28;20070;-83
2022/06/24 12:12:10;;;;;;;8.70;2.55;;;;;;;;;;10461028;28;20040;-85
2022/06/24 12:17:13;;;;;;;8.25;2.10;;;;;;;;;;10489322;28;20071;-82
2022/06/24 12:22:18;;;;;;;8.93;2.40;;;;;;;;;;10480323;28;20060;-83
2022/06/24 12:27:31;;;;;;;3.97;2.10;;;;;;;;;;10475504;28;20047;-82
2022/06/24 12:32:51;;;;;;;8.70;2.17;;;;;;;;;;10468911;28;20072;-84
2022/06/24 12:37:56;;;;;;;7.38;1.98;;;;;;;;;;10478281;28;20117;-84
2022/06/24 12:43:08;;;;;;;5.65;2.10;;;;;;;;;;10488013;28;20072;-84
2022/06/24 12:53:33;;;;;;;14.20;2.70;;;;;;;;;;10481919;28;20395;-84
2022/06/24 12:58:36;;;;;;;8.25;2.13;;;;;;;;;;10493389;28;20047;-84
2022/06/24 13:03:38;;;;;;;7.88;2.30;;;;;;;;;;10470728;28;20059;-81
2022/06/24 13:08:42;;;;;;;3.38;1.67;;;;;;;;;;10472832;28;20240;-85
2022/06/24 13:13:45;;;;;;;7.70;2.05;;;;;;;;;;10471345;28;20048;-84
2022/06/24 13:18:48;;;;;;;9.27;2.20;;;;;;;;;;10465709;28;20490;-82
2022/06/24 13:23:52;;;;;;;6.28;2.20;;;;;;;;;;10497124;28;20060;-83
2022/06/24 13:28:55;;;;;;;6.20;2.20;;;;;;;;;;10465899;28;20033;-82
2022/06/24 13:33:58;;;;;;;5.93;1.95;;;;;;;;;;10458264;28;20055;-82
2022/06/24 13:39:02;;;;;;;8.07;2.17;;;;;;;;;;10483233;28;20036;-79
2022/06/24 13:44:05;;;;;;;7.80;2.78;;;;;;;;;;10468895;28;20503;-78
2022/06/24 13:49:07;;;;;;;;;;;;;;;;;;10455046;28;20098;-78
2022/06/24 13:54:11;;;;;;;6.73;2.47;;;;;;;;;;10463834;28;20298;-84
2022/06/24 13:59:14;;;;;;;6.07;2.40;;;;;;;;;;10467363;22;20033;-78
2022/06/24 14:04:18;;;;;;;10.57;3.95;;;;;;;;;;10406600;28;20048;-78
2022/06/24 14:09:22;;;;;;;2.50;1.70;;;;;;;;;;10378526;28;20331;-75
2022/06/24 14:14:25;;;;;;;7.28;2.58;;;;;;;;;;10398444;28;20046;-75
2022/06/24 14:19:28;;;;;;;;;;;;;;;;;;10381381;28;20095;-76
2022/06/24 14:24:32;;;;;;;7.50;2.60;;;;;;;;;;10382021;28;19921;-77
2022/06/24 14:29:36;;;;;;;9.52;2.90;;;;;;;;;;10394377;28;20064;-75
2022/06/24 14:34:38;;;;;;;;;;;;;;;;;;10379180;28;20065;-74
2022/06/24 14:45:03;;;;;;;5.90;2.20;;;;;;;;;;10392169;28;20501;-77
2022/06/24 14:50:06;;;;;;;7.53;2.42;;;;;;;;;;10383729;28;20111;-76
2022/06/24 14:55:09;;;;;;;;;;;;;;;;;;10378425;28;20076;-76
2022/06/24 15:00:13;;;;;;;5.53;2.53;;;;;;;;;;10377103;28;19928;-77
2022/06/24 15:05:17;;;;;;;7.55;2.35;;;;;;;;;;10379578;28;20113;-76
2022/06/24 15:10:20;;;;;;;6.47;2.38;;;;;;;;;;10400063;28;20545;-75
2022/06/24 15:15:24;;;;;;;6.90;2.60;;;;;;;;;;10399408;28;20029;-75
2022/06/24 15:20:27;;;;;;;10.77;3.50;;;;;;;;;;10397942;28;20076;-76
2022/06/24 15:25:30;;;;;;;4.90;2.47;;;;;;;;;;10380941;28;20144;-76
2022/06/24 15:30:35;;;;;;;3.65;2.20;;;;;;;;;;10401065;28;20048;-74
2022/06/24 15:35:38;;;;;;;8.85;3.15;;;;;;;;;;10399775;28;20038;-78
2022/06/24 15:40:40;;;;;;;13.07;4.32;;;;;;;;;;10382582;28;20382;-80
2022/06/24 15:45:44;;;;;;;6.05;2.30;;;;;;;;;;10401977;28;20582;-78
2022/06/24 15:50:47;;;;;;;5.10;2.60;;;;;;;;;;10398073;28;20124;-79
2022/06/24 15:55:57;;;;;;;6.63;2.67;;;;;;;;;;10381500;28;20049;-79
2022/06/24 16:01:01;;;;;;;4.65;2.00;;;;;;;;;;10380378;28;20065;-77
2022/06/24 16:06:04;;;;;;;3.95;2.35;;;;;;;;;;10399881;28;20129;-78
2022/06/24 16:11:07;;;;;;;9.77;3.22;;;;;;;;;;10385006;28;20103;-79
2022/06/24 16:16:11;;;;;;;8.20;3.72;;;;;;;;;;10388277;28;20045;-73
2022/06/24 16:21:14;;;;;;;4.85;2.70;;;;;;;;;;10397661;28;20101;-73
2022/06/24 16:31:38;;;;;;;10.23;3.38;;;;;;;;;;10382952;28;20065;-73
2022/06/24 16:36:41;;;;;;;5.50;2.70;;;;;;;;;;10397169;28;20033;-76
2022/06/24 16:41:44;;;;;;;8.50;3.25;;;;;;;;;;10405201;28;20480;-76
2022/06/24 16:46:48;;;;;;;7.97;2.97;;;;;;;;;;10379688;28;20057;-75
2022/06/24 16:51:50;;;;;;;5.43;2.60;;;;;;;;;;10378607;28;20461;-74
2022/06/24 16:56:54;;;;;;;6.95;3.15;;;;;;;;;;10402789;28;20096;-76
2022/06/24 17:01:58;;;;;;;6.80;2.50;;;;;;;;;;10359960;28;1104371;-75
2022/06/24 17:07:01;;;;;;;7.05;2.88;;;;;;;;;;10401244;28;20117;-74
2022/06/24 17:12:05;;;;;;;6.68;2.90;;;;;;;;;;10398471;28;20064;-74
2022/06/24 17:17:08;;;;;;;;;;;;;;;;;;10397545;28;20125;-75
2022/06/24 17:22:12;;;;;;;8.95;3.45;;;;;;;;;;10398163;28;19925;-75
2022/06/24 17:27:15;;;;;;;6.03;2.17;;;;;;;;;;10379526;28;20273;-75
2022/06/24 17:32:18;;;;;;;3.78;2.28;;;;;;;;;;10397579;28;20034;-73
2022/06/24 17:37:26;;;;;;;3.58;2.42;;;;;;;;;;10395453;28;20514;-74
2022/06/24 17:42:28;;;;;;;5.63;2.20;;;;;;;;;;10397269;28;20076;-74
2022/06/24 17:47:31;;;;;;;7.25;2.90;;;;;;;;;;10396470;28;20108;-74
2022/06/24 17:52:36;;;;;;;4.85;1.85;;;;;;;;;;10395807;28;20049;-78
2022/06/24 17:57:39;;;;;;;3.28;1.88;;;;;;;;;;10398359;28;20079;-73
2022/06/24 18:02:41;;;;;;;3.42;2.08;;;;;;;;;;10398187;28;20048;-73
2022/06/24 18:07:46;;;;;;;4.90;2.13;;;;;;;;;;10396875;28;20045;-73
2022/06/24 18:12:50;;;;;;;1.98;1.70;;;;;;;;;;10376780;28;20076;-73
2022/06/24 18:17:53;;;;;;;6.15;2.45;;;;;;;;;;10400021;28;20029;-74
2022/06/24 18:22:57;;;;;;;6.05;1.92;;;;;;;;;;10378034;28;20037;-74
2022/06/24 18:28:00;;;;;;;6.07;2.08;;;;;;;;;;10392487;28;20817;-73
2022/06/24 18:33:03;;;;;;;1.45;1.10;;;;;;;;;;10396220;28;20061;-75
2022/06/24 18:38:07;;;;;;;2.57;0.80;;;;;;;;;;10379321;28;20075;-74
2022/06/24 18:43:09;;;;;;;0.70;0.70;;;;;;;;;;10392657;28;20593;-75
2022/06/24 18:48:12;;;;;;;1.27;0.90;;;;;;;;;;10395781;28;20037;-75
2022/06/24 18:53:16;;;;;;;0.90;0.70;;;;;;;;;;10376517;28;20111;-76
2022/06/24 18:58:19;;;;;;;1.52;0.55;;;;;;;;;;10393221;28;20086;-73
2022/06/24 19:03:22;;;;;;;2.17;0.77;;;;;;;;;;10398536;28;20049;-75
2022/06/24 19:08:26;;;;;;;0.93;0.77;;;;;;;;;;10395761;28;20041;-74
2022/06/24 19:13:28;;;;;;;1.05;0.65;;;;;;;;;;10390394;28;20462;-75
2022/06/24 19:23:54;;;;;;;0.50;0.20;;;;;;;;;;10395808;28;20067;-76
2022/06/24 19:28:57;;;;;;;1.55;0.60;;;;;;;;;;10398716;28;20116;-74
2022/06/24 19:34:00;;;;;;;1.23;0.75;;;;;;;;;;10381116;28;20523;-75
2022/06/24 19:39:04;;;;;;;1.07;0.40;;;;;;;;;;10394810;28;20310;-75
2022/06/24 19:44:07;;;;;;;0.70;0.70;;;;;;;;;;10395088;28;20528;-75
2022/06/24 19:49:10;;;;;;;0.93;0.80;;;;;;;;;;10390778;28;20564;-74
2022/06/24 19:54:15;;;;;;;1.63;0.97;;;;;;;;;;10406278;28;20041;-74
2022/06/24 19:59:18;;;;;;;1.48;0.50;;;;;;;;;;10401655;28;20116;-74
2022/06/24 20:09:45;;;;;;;2.72;0.45;;;;;;;;;;10400064;28;20034;-76
2022/06/24 20:14:48;;;;;;;1.90;0.88;;;;;;;;;;10380194;28;20714;-72
2022/06/24 20:19:51;;;;;;;0.97;0.80;;;;;;;;;;10396226;28;20047;-76
2022/06/24 20:24:55;;;;;;;0.50;0.47;;;;;;;;;;10400768;28;20048;-74
2022/06/24 20:29:59;;;;;;;1.10;0.40;;;;;;;;;;10381360;28;20049;-73
2022/06/24 20:35:02;;;;;;;1.95;0.80;;;;;;;;;;10399710;28;20037;-73
2022/06/24 20:40:07;;;;;;;1.40;0.85;;;;;;;;;;10401471;28;20408;-74
2022/06/24 20:45:10;;;;;;;2.88;1.17;;;;;;;;;;10382556;28;20029;-75
2022/06/24 20:50:13;;;;;;;2.60;0.80;;;;;;;;;;10399600;28;20458;-74
2022/06/24 20:55:18;;;;;;;0.65;0.60;;;;;;;;;;10401832;28;20120;-74
2022/06/24 21:00:21;;;;;;;1.75;0.93;;;;;;;;;;10382511;28;20049;-75
2022/06/24 21:05:24;;;;;;;1.20;0.70;;;;;;;;;;10401308;28;20045;-73
2022/06/24 21:10:28;;;;;;;1.17;0.50;;;;;;;;;;10399595;28;20071;-74
2022/06/24 21:15:30;;;;;;;1.27;0.70;;;;;;;;;;10379664;28;20069;-76
2022/06/24 21:20:34;;;;;;;2.78;0.80;;;;;;;;;;10398236;28;20063;-74
2022/06/24 21:25:39;;;;;;;1.40;0.85;;;;;;;;;;10400824;28;20064;-74
2022/06/24 21:30:43;;;;;;;2.45;1.00;;;;;;;;;;10399634;28;20459;-74
2022/06/24 21:35:46;;;;;;;0.75;0.57;;;;;;;;;;10382514;28;20124;-75
2022/06/24 21:40:50;;;;;;;1.05;0.65;;;;;;;;;;10397926;28;20117;-75
2022/06/24 21:45:53;;;;;;;5.13;1.08;;;;;;;;;;10398534;28;20197;-72
2022/06/24 21:50:56;;;;;;;0.70;0.65;;;;;;;;;;10379927;28;20033;-74
2022/06/24 21:56:00;;;;;;;1.00;0.63;;;;;;;;;;10401698;28;20139;-75
2022/06/24 22:01:03;;;;;;;0.73;0.68;;;;;;;;;;10395331;28;20041;-74
2022/06/24 22:06:05;;;;;;;3.38;0.95;;;;;;;;;;10400872;28;20025;-73
2022/06/24 22:11:09;;;;;;;2.40;1.10;;;;;;;;;;10383507;28;20147;-72
2022/06/24 22:16:13;;;;;;;1.38;0.68;;;;;;;;;;10393924;28;20727;-73
2022/06/24 22:21:16;;;;;;;;;;;;;;;;;;10378494;28;20136;-71
2022/06/24 22:26:20;;;;;;;1.42;0.85;;;;;;;;;;10376562;28;19986;-73
2022/06/24 22:31:23;;;;;;;4.20;2.30;;;;;;;;;;10389817;28;20041;-72
2022/06/24 22:36:26;;;;;;;4.63;1.00;;;;;;;;;;10405790;28;20141;-73
2022/06/24 22:41:30;;;;;;;3.33;1.40;;;;;;;;;;10385555;28;20057;-72
2022/06/24 22:46:33;;;;;;;1.08;0.80;;;;;;;;;;10404514;28;20446;-75
2022/06/24 22:51:35;;;;;;;1.17;0.80;;;;;;;;;;10395468;28;20048;-75
2022/06/24 22:56:40;;;;;;;0.60;0.60;;;;;;;;;;10399638;28;20050;-75
2022/06/24 23:01:43;;;;;;;1.48;0.88;;;;;;;;;;10400251;28;20034;-76
2022/06/24 23:06:46;;;;;;;3.33;1.08;;;;;;;;;;10385235;28;20362;-75
2022/06/24 23:11:50;;;;;;;0.30;0.30;;;;;;;;;;10381402;28;20136;-76
2022/06/24 23:16:53;;;;;;;0.90;0.45;;;;;;;;;;10393191;28;20052;-75
2022/06/24 23:21:55;;;;;;;1.47;0.80;;;;;;;;;;10377997;28;20072;-76
2022/06/24 23:27:00;;;;;;;0.50;0.40;;;;;;;;;;10405562;28;20050;-76
2022/06/24 23:32:02;;;;;;;1.63;0.93;;;;;;;;;;10406502;28;20033;-75
2022/06/24 23:37:05;;;;;;;0.93;0.73;;;;;;;;;;10405394;28;20280;-73
2022/06/24 23:42:09;;;;;;;1.90;0.90;;;;;;;;;;10407925;28;20032;-76
2022/06/24 23:47:12;;;;;;;2.00;0.95;;;;;;;;;;10402783;28;20041;-75
2022/06/24 23:52:15;;;;;;;1.23;0.80;;;;;;;;;;10386799;28;20038;-76
2022/06/24 23:57:19;;;;;;;4.07;1.00;;;;;;;;;;10387792;28;20057;-76
